createdAt,value
2017-08-05T00:01:54.611Z,23.30
2017-08-05T00:04:22.155Z,23.40
2017-08-05T00:06:49.724Z,23.60
2017-08-05T00:09:17.294Z,23.60
2017-08-05T00:11:44.897Z,23.40
2017-08-05T00:14:12.444Z,23.30
2017-08-05T00:16:39.985Z,23.30
2017-08-05T00:19:07.571Z,23.10
2017-08-05T00:21:35.105Z,23.20
2017-08-05T00:24:02.644Z,23.20
2017-08-05T00:26:30.204Z,23.30
2017-08-05T00:28:57.757Z,23.30
2017-08-05T00:31:25.323Z,23.40
2017-08-05T00:33:52.897Z,23.50
2017-08-05T00:36:20.442Z,23.60
2017-08-05T00:38:47.975Z,23.70
2017-08-05T00:41:15.521Z,23.60
2017-08-05T00:43:43.090Z,23.60
2017-08-05T00:46:10.957Z,23.60
2017-08-05T00:48:38.485Z,23.60
2017-08-05T00:51:06.044Z,23.40
2017-08-05T00:53:33.570Z,23.40
2017-08-05T00:56:01.110Z,23.30
2017-08-05T00:58:29.423Z,23.20
2017-08-05T01:00:56.986Z,23.20
2017-08-05T01:03:24.554Z,23.30
2017-08-05T01:05:52.107Z,23.30
2017-08-05T01:08:19.662Z,23.10
2017-08-05T01:10:47.198Z,23.00
2017-08-05T01:13:15.473Z,23.00
2017-08-05T01:15:43.781Z,23.10
2017-08-05T01:18:11.367Z,23.00
2017-08-05T01:20:38.936Z,23.00
2017-08-05T01:23:06.491Z,23.10
2017-08-05T01:25:34.046Z,23.10
2017-08-05T01:28:01.614Z,23.00
2017-08-05T01:30:29.113Z,22.90
2017-08-05T01:32:57.455Z,22.90
2017-08-05T01:35:24.998Z,22.80
2017-08-05T01:40:26.424Z,22.50
2017-08-05T01:42:53.956Z,22.60
2017-08-05T01:45:21.481Z,22.60
2017-08-05T01:47:49.074Z,22.60
2017-08-05T01:50:16.683Z,22.70
2017-08-05T01:52:44.233Z,22.80
2017-08-05T01:55:12.515Z,22.90
2017-08-05T01:57:40.083Z,22.80
2017-08-05T02:00:07.682Z,22.90
2017-08-05T02:02:35.262Z,22.80
2017-08-05T02:05:02.811Z,23.00
2017-08-05T02:07:30.362Z,22.70
2017-08-05T02:09:57.920Z,22.70
2017-08-05T02:12:25.493Z,22.60
2017-08-05T02:14:53.017Z,22.50
2017-08-05T02:17:20.573Z,22.70
2017-08-05T02:19:48.090Z,22.70
2017-08-05T02:22:16.406Z,22.80
2017-08-05T02:24:43.935Z,22.80
2017-08-05T02:27:12.255Z,22.90
2017-08-05T02:29:39.774Z,22.90
2017-08-05T02:32:08.090Z,22.70
2017-08-05T02:34:35.609Z,22.70
2017-08-05T02:37:03.935Z,22.80
2017-08-05T02:39:37.008Z,22.70
2017-08-05T02:42:04.686Z,22.60
2017-08-05T02:44:32.258Z,22.60
2017-08-05T02:46:59.812Z,22.70
2017-08-05T02:49:27.358Z,22.80
2017-08-05T02:51:54.913Z,22.90
2017-08-05T02:54:22.443Z,22.80
2017-08-05T02:56:49.993Z,22.90
2017-08-05T02:59:17.517Z,22.70
2017-08-05T03:01:45.074Z,22.80
2017-08-05T03:04:12.619Z,22.70
2017-08-05T03:06:40.154Z,22.80
2017-08-05T03:09:07.694Z,22.80
2017-08-05T03:11:35.220Z,22.50
2017-08-05T03:14:02.786Z,22.60
2017-08-05T03:16:30.338Z,22.60
2017-08-05T03:18:57.908Z,22.50
2017-08-05T03:21:25.518Z,22.30
2017-08-05T03:23:53.082Z,22.30
2017-08-05T03:26:20.618Z,22.00
2017-08-05T03:28:48.964Z,21.30
2017-08-05T03:31:16.495Z,21.30
2017-08-05T03:33:44.050Z,21.10
2017-08-05T03:36:11.583Z,21.00
2017-08-05T03:38:39.886Z,20.70
2017-08-05T03:41:07.442Z,20.70
2017-08-05T03:43:34.986Z,20.70
2017-08-05T03:46:02.576Z,20.70
2017-08-05T03:48:30.114Z,20.90
2017-08-05T03:50:57.671Z,21.00
2017-08-05T03:53:25.254Z,20.90
2017-08-05T03:55:52.803Z,21.10
2017-08-05T03:58:20.345Z,21.10
2017-08-05T04:00:48.654Z,21.30
2017-08-05T04:03:16.196Z,21.30
2017-08-05T04:05:43.774Z,21.00
2017-08-05T04:08:11.342Z,21.10
2017-08-05T04:10:38.878Z,21.20
2017-08-05T04:13:06.414Z,21.20
2017-08-05T04:15:34.738Z,21.20
2017-08-05T04:18:03.231Z,21.20
2017-08-05T04:20:30.789Z,21.30
2017-08-05T04:22:58.346Z,21.40
2017-08-05T04:25:25.882Z,21.40
2017-08-05T04:27:53.413Z,21.50
2017-08-05T04:30:21.728Z,21.60
2017-08-05T04:32:49.307Z,21.60
2017-08-05T04:35:16.842Z,21.60
2017-08-05T04:37:44.436Z,21.70
2017-08-05T04:40:11.934Z,21.80
2017-08-05T04:42:40.248Z,21.70
2017-08-05T04:45:07.783Z,21.70
2017-08-05T04:47:35.343Z,21.70
2017-08-05T04:50:02.898Z,21.60
2017-08-05T04:52:31.175Z,21.70
2017-08-05T04:54:59.458Z,21.60
2017-08-05T04:57:26.976Z,21.60
2017-08-05T04:59:54.528Z,21.60
2017-08-05T05:02:22.475Z,21.60
2017-08-05T05:04:50.027Z,21.60
2017-08-05T05:07:17.541Z,21.60
2017-08-05T05:09:45.095Z,21.60
2017-08-05T05:12:12.626Z,21.70
2017-08-05T05:14:40.184Z,21.70
2017-08-05T05:17:07.723Z,21.60
2017-08-05T05:19:35.265Z,21.70
2017-08-05T05:22:02.849Z,21.70
2017-08-05T05:24:30.462Z,21.60
2017-08-05T05:26:58.017Z,21.60
2017-08-05T05:29:25.627Z,21.70
2017-08-05T05:31:53.152Z,21.60
2017-08-05T05:34:21.493Z,21.80
2017-08-05T05:36:49.133Z,21.80
2017-08-05T05:39:16.705Z,21.90
2017-08-05T05:41:44.253Z,21.90
2017-08-05T05:44:11.855Z,21.80
2017-08-05T05:46:39.432Z,21.80
2017-08-05T05:49:07.794Z,21.90
2017-08-05T05:51:36.094Z,21.90
2017-08-05T05:54:04.422Z,22.00
2017-08-05T05:56:31.942Z,21.90
2017-08-05T05:58:59.471Z,22.00
2017-08-05T06:01:27.771Z,22.00
2017-08-05T06:03:55.387Z,22.00
2017-08-05T06:06:22.913Z,22.00
2017-08-05T06:08:50.510Z,22.00
2017-08-05T06:11:18.023Z,22.00
2017-08-05T06:13:45.578Z,21.90
2017-08-05T06:16:13.147Z,22.00
2017-08-05T06:18:40.712Z,22.00
2017-08-05T06:21:08.269Z,21.90
2017-08-05T06:23:35.838Z,21.90
2017-08-05T06:26:03.395Z,22.00
2017-08-05T06:28:30.959Z,22.10
2017-08-05T06:30:58.497Z,22.20
2017-08-05T06:33:26.009Z,22.20
2017-08-05T06:35:53.526Z,22.00
2017-08-05T06:38:21.072Z,22.00
2017-08-05T06:40:49.374Z,22.00
2017-08-05T06:43:16.906Z,22.00
2017-08-05T06:45:45.262Z,21.90
2017-08-05T06:48:12.774Z,21.90
2017-08-05T06:50:40.312Z,22.00
2017-08-05T06:53:07.847Z,22.00
2017-08-05T06:55:35.426Z,22.00
2017-08-05T06:58:02.967Z,22.10
2017-08-05T07:00:30.526Z,22.10
2017-08-05T07:02:58.036Z,22.20
2017-08-05T07:05:25.583Z,22.30
2017-08-05T07:07:53.102Z,22.20
2017-08-05T07:10:20.619Z,22.00
2017-08-05T07:12:48.170Z,22.10
2017-08-05T07:15:15.726Z,22.00
2017-08-05T07:17:43.292Z,22.20
2017-08-05T07:20:10.870Z,22.10
2017-08-05T07:22:38.407Z,22.20
2017-08-05T07:25:05.962Z,22.00
2017-08-05T07:27:33.511Z,22.10
2017-08-05T07:30:01.127Z,22.00
2017-08-05T07:32:28.667Z,22.10
2017-08-05T07:34:56.304Z,22.10
2017-08-05T07:37:23.833Z,22.10
2017-08-05T07:39:51.365Z,22.10
2017-08-05T07:42:18.921Z,22.10
2017-08-05T07:44:46.464Z,22.10
2017-08-05T07:47:13.991Z,22.10
2017-08-05T07:49:41.543Z,22.00
2017-08-05T07:52:09.825Z,22.00
2017-08-05T07:54:38.115Z,22.10
2017-08-05T07:57:05.622Z,22.10
2017-08-05T07:59:33.171Z,22.20
2017-08-05T08:02:00.748Z,22.30
2017-08-05T08:04:28.279Z,22.30
2017-08-05T08:06:55.814Z,22.30
2017-08-05T08:09:23.331Z,22.10
2017-08-05T08:11:50.878Z,22.20
2017-08-05T08:14:18.404Z,22.20
2017-08-05T08:16:45.941Z,22.40
2017-08-05T08:19:13.481Z,22.40
2017-08-05T08:21:41.803Z,22.40
2017-08-05T08:24:09.329Z,22.30
2017-08-05T08:26:36.912Z,22.30
2017-08-05T08:29:04.473Z,22.30
2017-08-05T08:31:31.995Z,22.30
2017-08-05T08:33:59.527Z,22.20
2017-08-05T08:36:27.114Z,22.30
2017-08-05T08:38:55.431Z,22.30
2017-08-05T08:41:22.960Z,22.30
2017-08-05T08:43:51.242Z,22.70
2017-08-05T08:46:19.548Z,22.80
2017-08-05T08:48:47.086Z,22.70
2017-08-05T08:51:15.403Z,22.60
2017-08-05T08:53:42.922Z,22.60
2017-08-05T08:56:11.228Z,23.10
2017-08-05T08:58:38.735Z,23.10
2017-08-05T09:01:06.322Z,23.40
2017-08-05T09:03:33.872Z,23.60
2017-08-05T09:06:01.437Z,23.90
2017-08-05T09:08:29.722Z,24.20
2017-08-05T09:10:58.033Z,24.30
2017-08-05T09:13:25.542Z,24.30
2017-08-05T09:15:53.119Z,24.40
2017-08-05T09:18:20.633Z,24.20
2017-08-05T09:20:48.190Z,24.10
2017-08-05T09:23:15.711Z,23.80
2017-08-05T09:25:43.238Z,23.80
2017-08-05T09:28:11.531Z,23.60
2017-08-05T09:30:39.103Z,23.60
2017-08-05T09:33:06.640Z,23.80
2017-08-05T09:35:34.947Z,23.50
2017-08-05T09:38:02.479Z,23.50
2017-08-05T09:40:30.061Z,23.50
2017-08-05T09:42:57.566Z,23.50
2017-08-05T09:45:25.095Z,23.50
2017-08-05T09:47:52.646Z,23.70
2017-08-05T09:50:20.186Z,23.80
2017-08-05T09:52:48.464Z,23.50
2017-08-05T09:55:16.774Z,23.80
2017-08-05T09:57:44.302Z,23.80
2017-08-05T10:00:11.829Z,23.90
2017-08-05T10:02:39.350Z,23.90
2017-08-05T10:05:06.859Z,24.20
2017-08-05T10:07:34.422Z,24.30
2017-08-05T10:10:02.008Z,24.30
2017-08-05T10:12:29.542Z,23.80
2017-08-05T10:14:57.850Z,24.00
2017-08-05T10:17:25.375Z,24.00
2017-08-05T10:19:52.948Z,24.10
2017-08-05T10:22:21.259Z,23.90
2017-08-05T10:24:48.806Z,23.90
2017-08-05T10:27:16.387Z,23.80
2017-08-05T10:29:43.929Z,23.70
2017-08-05T10:32:11.513Z,23.60
2017-08-05T10:34:39.026Z,23.40
2017-08-05T10:37:07.339Z,23.20
2017-08-05T10:39:34.866Z,23.20
2017-08-05T10:42:03.204Z,22.80
2017-08-05T10:44:30.814Z,22.80
2017-08-05T10:46:58.474Z,22.80
2017-08-05T10:49:26.069Z,22.70
2017-08-05T10:51:53.631Z,23.00
2017-08-05T10:54:21.190Z,23.10
2017-08-05T10:56:48.780Z,23.30
2017-08-05T10:59:16.310Z,23.50
2017-08-05T11:01:43.844Z,23.50
2017-08-05T11:04:11.396Z,23.60
2017-08-05T11:06:38.918Z,23.80
2017-08-05T11:09:06.478Z,23.90
2017-08-05T11:11:34.019Z,24.00
2017-08-05T11:14:01.610Z,24.10
2017-08-05T11:16:29.175Z,23.90
2017-08-05T11:18:57.494Z,24.10
2017-08-05T11:21:25.040Z,24.10
2017-08-05T11:23:52.586Z,24.10
2017-08-05T11:26:20.919Z,23.90
2017-08-05T11:28:48.444Z,23.90
2017-08-05T11:31:15.971Z,23.60
2017-08-05T11:33:43.540Z,23.80
2017-08-05T11:36:11.085Z,24.10
2017-08-05T11:38:38.603Z,24.50
2017-08-05T11:41:06.159Z,24.80
2017-08-05T11:43:33.715Z,25.00
2017-08-05T11:46:01.238Z,25.20
2017-08-05T11:48:28.775Z,25.50
2017-08-05T11:50:56.347Z,25.80
2017-08-05T11:53:24.638Z,25.60
2017-08-05T11:55:52.207Z,25.60
2017-08-05T11:58:19.730Z,25.30
2017-08-05T12:00:47.319Z,25.10
2017-08-05T12:03:15.651Z,24.70
2017-08-05T12:05:43.154Z,24.60
2017-08-05T12:08:10.713Z,23.90
2017-08-05T12:10:38.259Z,24.10
2017-08-05T12:13:05.880Z,24.00
2017-08-05T12:15:33.419Z,24.20
2017-08-05T12:18:01.004Z,24.20
2017-08-05T12:20:28.573Z,24.30
2017-08-05T12:22:56.138Z,24.20
2017-08-05T12:25:23.708Z,24.30
2017-08-05T12:27:51.277Z,24.30
2017-08-05T12:30:18.830Z,23.70
2017-08-05T12:32:46.376Z,23.60
2017-08-05T12:35:13.897Z,23.70
2017-08-05T12:37:41.495Z,23.60
2017-08-05T12:40:09.024Z,23.60
2017-08-05T12:42:36.626Z,23.30
2017-08-05T12:45:04.146Z,22.50
2017-08-05T12:47:31.694Z,22.20
2017-08-05T12:49:59.305Z,22.20
2017-08-05T12:52:26.874Z,22.50
2017-08-05T12:54:54.405Z,23.10
2017-08-05T12:57:21.961Z,23.60
2017-08-05T12:59:49.498Z,24.40
2017-08-05T13:02:17.083Z,25.20
2017-08-05T13:04:44.613Z,25.70
2017-08-05T13:07:12.147Z,25.60
2017-08-05T13:09:39.660Z,26.30
2017-08-05T13:12:07.239Z,26.60
2017-08-05T13:14:34.751Z,27.30
2017-08-05T13:17:02.285Z,27.80
2017-08-05T13:19:29.806Z,28.20
2017-08-05T13:21:57.334Z,28.30
2017-08-05T13:24:24.875Z,27.90
2017-08-05T13:26:52.415Z,27.40
2017-08-05T13:29:19.937Z,26.30
2017-08-05T13:31:47.515Z,26.60
2017-08-05T13:34:15.069Z,26.60
2017-08-05T13:36:42.626Z,27.10
2017-08-05T13:39:10.134Z,26.80
2017-08-05T13:41:38.444Z,26.60
2017-08-05T13:44:05.981Z,26.60
2017-08-05T13:46:33.491Z,26.40
2017-08-05T13:49:01.026Z,26.50
2017-08-05T13:51:28.560Z,26.20
2017-08-05T13:53:56.143Z,25.30
2017-08-05T13:56:23.736Z,25.10
2017-08-05T13:58:51.304Z,24.90
2017-08-05T14:01:18.851Z,25.00
2017-08-05T14:03:46.418Z,24.80
2017-08-05T14:06:13.982Z,24.10
2017-08-05T14:08:41.550Z,24.20
2017-08-05T14:11:09.107Z,24.30
2017-08-05T14:13:36.657Z,25.40
2017-08-05T14:16:04.201Z,27.00
2017-08-05T14:18:31.766Z,27.70
2017-08-05T14:20:59.292Z,29.20
2017-08-05T14:23:26.814Z,28.30
2017-08-05T14:25:54.350Z,29.80
2017-08-05T14:28:21.974Z,30.30
2017-08-05T14:30:49.498Z,30.40
2017-08-05T14:33:17.039Z,30.10
2017-08-05T14:35:44.558Z,30.30
2017-08-05T14:38:12.079Z,30.60
2017-08-05T14:40:40.365Z,30.90
2017-08-05T14:43:07.919Z,30.90
2017-08-05T14:45:35.426Z,30.60
2017-08-05T14:48:02.986Z,30.70
2017-08-05T14:50:30.532Z,30.30
2017-08-05T14:52:58.053Z,29.80
2017-08-05T14:55:26.390Z,28.30
2017-08-05T14:57:53.946Z,28.30
2017-08-05T15:00:21.503Z,28.20
2017-08-05T15:02:49.057Z,27.90
2017-08-05T15:05:16.562Z,27.60
2017-08-05T15:07:44.096Z,27.90
2017-08-05T15:10:11.643Z,27.70
2017-08-05T15:12:39.168Z,27.60
2017-08-05T15:15:06.696Z,27.40
2017-08-05T15:17:34.266Z,27.20
2017-08-05T15:20:01.802Z,26.60
2017-08-05T15:22:29.321Z,26.30
2017-08-05T15:24:56.847Z,25.80
2017-08-05T15:27:24.381Z,25.60
2017-08-05T15:29:51.902Z,25.40
2017-08-05T15:32:19.454Z,25.10
2017-08-05T15:34:46.980Z,25.20
2017-08-05T15:37:14.478Z,25.30
2017-08-05T15:39:42.001Z,24.30
2017-08-05T15:42:09.590Z,24.00
2017-08-05T15:44:37.144Z,23.70
2017-08-05T15:47:04.696Z,23.50
2017-08-05T15:49:32.315Z,23.20
2017-08-05T15:51:59.837Z,23.00
2017-08-05T15:54:27.386Z,22.80
2017-08-05T15:56:54.906Z,22.90
2017-08-05T15:59:27.449Z,22.90
2017-08-05T16:01:54.987Z,22.90
2017-08-05T16:04:22.587Z,22.90
2017-08-05T16:06:50.124Z,22.90
2017-08-05T16:09:17.719Z,22.90
2017-08-05T16:11:45.291Z,22.80
2017-08-05T16:14:13.005Z,22.90
2017-08-05T16:16:40.984Z,22.70
2017-08-05T16:19:09.797Z,22.70
2017-08-05T16:21:37.446Z,22.70
2017-08-05T16:24:05.453Z,23.00
2017-08-05T16:26:33.022Z,23.00
2017-08-05T16:29:02.005Z,23.10
2017-08-05T16:31:29.630Z,23.00
2017-08-05T16:33:57.170Z,23.10
2017-08-05T16:36:24.695Z,23.20
2017-08-05T16:38:52.252Z,23.20
2017-08-05T16:41:20.551Z,23.40
2017-08-05T16:43:48.111Z,23.40
2017-08-05T16:46:15.652Z,23.50
2017-08-05T16:48:43.990Z,23.00
2017-08-05T16:51:11.535Z,23.00
2017-08-05T16:53:39.062Z,23.30
2017-08-05T16:56:07.374Z,23.00
2017-08-05T16:58:34.911Z,23.00
2017-08-05T17:01:02.455Z,23.30
2017-08-05T17:03:30.740Z,23.30
2017-08-05T17:05:58.262Z,23.30
2017-08-05T17:08:25.833Z,23.10
2017-08-05T17:10:53.383Z,23.50
2017-08-05T17:13:20.947Z,23.70
2017-08-05T17:15:48.479Z,23.80
2017-08-05T17:18:16.014Z,23.70
2017-08-05T17:20:43.531Z,23.60
2017-08-05T17:23:11.105Z,23.70
2017-08-05T17:25:38.608Z,23.50
2017-08-05T17:28:06.148Z,23.60
2017-08-05T17:30:33.670Z,23.70
2017-08-05T17:33:01.993Z,23.50
2017-08-05T17:35:29.512Z,23.50
2017-08-05T17:37:57.789Z,23.70
2017-08-05T17:40:26.119Z,23.80
2017-08-05T17:42:53.735Z,23.70
2017-08-05T17:45:21.267Z,23.60
2017-08-05T17:47:48.803Z,23.60
2017-08-05T17:50:16.374Z,23.50
2017-08-05T17:52:43.950Z,23.60
2017-08-05T17:55:11.483Z,23.50
2017-08-05T17:57:38.998Z,23.20
2017-08-05T18:00:06.604Z,23.30
2017-08-05T18:02:34.137Z,23.30
2017-08-05T18:05:01.689Z,23.30
2017-08-05T18:07:29.251Z,23.50
2017-08-05T18:09:56.811Z,23.40
2017-08-05T18:12:24.346Z,23.50
2017-08-05T18:14:51.930Z,23.40
2017-08-05T18:17:19.467Z,23.40
2017-08-05T18:19:47.090Z,23.50
2017-08-05T18:22:14.657Z,23.30
2017-08-05T18:24:42.223Z,23.10
2017-08-05T18:27:09.783Z,22.80
2017-08-05T18:29:37.347Z,22.70
2017-08-05T18:32:04.872Z,22.70
2017-08-05T18:34:32.437Z,22.50
2017-08-05T18:36:59.933Z,22.50
2017-08-05T18:42:01.352Z,22.60
2017-08-05T18:44:28.908Z,22.50
2017-08-05T18:46:56.513Z,22.40
2017-08-05T18:49:24.045Z,22.40
2017-08-05T18:51:51.605Z,22.20
2017-08-05T18:54:19.195Z,22.10
2017-08-05T18:56:48.468Z,22.10
2017-08-05T18:59:16.001Z,22.10
2017-08-05T19:01:44.303Z,22.10
2017-08-05T19:04:11.872Z,22.10
2017-08-05T19:06:39.418Z,22.00
2017-08-05T19:09:06.992Z,22.00
2017-08-05T19:11:34.526Z,22.00
2017-08-05T19:14:02.104Z,21.90
2017-08-05T19:16:29.645Z,22.00
2017-08-05T19:18:57.237Z,22.00
2017-08-05T19:21:24.794Z,21.90
2017-08-05T19:23:52.360Z,21.80
2017-08-05T19:26:19.867Z,21.50
2017-08-05T19:28:48.237Z,21.30
2017-08-05T19:31:15.762Z,21.20
2017-08-05T19:33:43.290Z,21.10
2017-08-05T19:36:10.883Z,21.00
2017-08-05T19:38:38.423Z,21.20
2017-08-05T19:41:06.036Z,21.20
2017-08-05T19:43:33.542Z,21.30
2017-08-05T19:46:01.112Z,21.10
2017-08-05T19:48:28.683Z,21.00
2017-08-05T19:50:56.213Z,21.00
2017-08-05T19:53:23.758Z,20.90
2017-08-05T19:55:51.318Z,20.90
2017-08-05T19:58:19.628Z,20.70
2017-08-05T20:00:47.263Z,20.60
2017-08-05T20:03:14.834Z,20.70
2017-08-05T20:05:42.396Z,20.60
2017-08-05T20:08:09.969Z,20.80
2017-08-05T20:10:37.623Z,20.80
2017-08-05T20:13:05.178Z,20.80
2017-08-05T20:15:32.738Z,20.80
2017-08-05T20:18:00.262Z,20.70
2017-08-05T20:20:28.666Z,20.90
2017-08-05T20:22:56.237Z,20.90
2017-08-05T20:25:23.832Z,20.60
2017-08-05T20:27:51.379Z,20.70
2017-08-05T20:30:18.974Z,20.70
2017-08-05T20:32:46.492Z,20.70
2017-08-05T20:35:14.099Z,20.70
2017-08-05T20:37:41.696Z,20.80
2017-08-05T20:40:09.393Z,21.00
2017-08-05T20:42:37.030Z,21.00
2017-08-05T20:45:04.583Z,21.00
2017-08-05T20:47:32.151Z,20.80
2017-08-05T20:49:59.721Z,20.70
2017-08-05T20:52:27.338Z,20.70
2017-08-05T20:54:54.967Z,20.80
2017-08-05T20:57:22.504Z,20.70
2017-08-05T20:59:50.098Z,20.60
2017-08-05T21:02:18.457Z,20.80
2017-08-05T21:04:46.075Z,20.80
2017-08-05T21:07:13.607Z,20.90
2017-08-05T21:09:41.979Z,20.90
2017-08-05T21:12:10.300Z,21.00
2017-08-05T21:14:37.910Z,21.00
2017-08-05T21:17:05.459Z,20.90
2017-08-05T21:19:33.077Z,21.00
2017-08-05T21:22:00.672Z,20.90
2017-08-05T21:24:28.206Z,20.80
2017-08-05T21:26:55.801Z,20.60
2017-08-05T21:29:23.362Z,20.70
2017-08-05T21:31:50.934Z,20.70
2017-08-05T21:34:18.499Z,20.40
2017-08-05T21:36:46.060Z,20.40
2017-08-05T21:39:13.627Z,20.30
2017-08-05T21:41:41.266Z,20.50
2017-08-05T21:44:08.872Z,20.60
2017-08-05T21:46:36.523Z,20.60
2017-08-05T21:49:04.067Z,20.70
2017-08-05T21:51:31.651Z,20.80
2017-08-05T21:53:59.260Z,20.90
2017-08-05T21:56:26.855Z,21.10
2017-08-05T21:58:54.580Z,21.10
2017-08-05T22:01:22.239Z,21.20
2017-08-05T22:03:49.849Z,21.30
2017-08-05T22:06:17.407Z,21.20
2017-08-05T22:08:44.952Z,21.20
2017-08-05T22:11:12.545Z,21.10
2017-08-05T22:13:40.198Z,20.90
2017-08-05T22:16:08.559Z,20.90
2017-08-05T22:18:36.103Z,20.90
2017-08-05T22:21:03.702Z,21.00
2017-08-05T22:23:32.032Z,20.90
2017-08-05T22:25:59.623Z,20.90
2017-08-05T22:28:27.161Z,20.90
2017-08-05T22:30:54.730Z,20.70
2017-08-05T22:33:22.314Z,20.70
2017-08-05T22:35:49.887Z,20.70
2017-08-05T22:38:17.435Z,20.90
2017-08-05T22:40:45.769Z,20.90
2017-08-05T22:43:13.344Z,20.90
2017-08-05T22:45:40.918Z,20.90
2017-08-05T22:48:08.471Z,20.90
2017-08-05T22:50:36.078Z,20.80
2017-08-05T22:53:03.692Z,20.80
2017-08-05T22:55:31.290Z,20.80
2017-08-05T22:57:59.570Z,20.70
2017-08-05T23:00:27.961Z,20.70
2017-08-05T23:02:55.518Z,20.70
2017-08-05T23:05:23.088Z,20.70
2017-08-05T23:07:50.632Z,20.80
2017-08-05T23:10:18.200Z,20.60
2017-08-05T23:12:45.731Z,20.50
2017-08-05T23:15:13.318Z,20.50
2017-08-05T23:17:41.610Z,20.60
2017-08-05T23:20:09.165Z,20.60
2017-08-05T23:22:36.787Z,20.60
2017-08-05T23:25:04.414Z,20.60
2017-08-05T23:27:31.951Z,20.60
2017-08-05T23:29:59.527Z,20.60
2017-08-05T23:32:27.095Z,20.60
2017-08-05T23:34:54.681Z,20.50
2017-08-05T23:37:22.309Z,20.50
2017-08-05T23:39:49.836Z,20.40
2017-08-05T23:42:18.183Z,20.40
2017-08-05T23:44:46.515Z,20.40
2017-08-05T23:47:14.043Z,20.40
2017-08-05T23:49:42.348Z,20.40
2017-08-05T23:52:09.938Z,20.40
2017-08-05T23:54:37.490Z,20.40
2017-08-05T23:57:05.061Z,20.30
2017-08-05T23:59:32.595Z,20.30
